sensor_id;sensor_type;location;lat;lon;timestamp;P1;durP1;ratioP1;P2;durP2;ratioP2
30458;SDS011;17254;50.976;7.034;2022-11-04T00:00:05;5.05;;;3.47;;
30458;SDS011;17254;50.976;7.034;2022-11-04T00:00:12;4.67;;;3.43;;
30458;SDS011;17254;50.976;7.034;2022-11-04T00:00:19;4.88;;;3.30;;
30458;SDS011;17254;50.976;7.034;2022-11-04T00:00:26;5.70;;;3.30;;
30458;SDS011;17254;50.976;7.034;2022-11-04T00:00:32;6.05;;;3.42;;
30458;SDS011;17254;50.976;7.034;2022-11-04T00:00:38;6.05;;;3.38;;
30458;SDS011;17254;50.976;7.034;2022-11-04T00:00:44;6.15;;;3.47;;
30458;SDS011;17254;50.976;7.034;2022-11-04T00:00:50;5.80;;;3.63;;
30458;SDS011;17254;50.976;7.034;2022-11-04T00:01:01;5.23;;;3.53;;
30458;SDS011;17254;50.976;7.034;2022-11-04T00:01:08;5.18;;;3.53;;
30458;SDS011;17254;50.976;7.034;2022-11-04T00:01:13;5.70;;;3.50;;
30458;SDS011;17254;50.976;7.034;2022-11-04T00:01:19;5.60;;;3.42;;
30458;SDS011;17254;50.976;7.034;2022-11-04T00:01:25;5.70;;;3.57;;
30458;SDS011;17254;50.976;7.034;2022-11-04T00:01:32;4.95;;;3.55;;
30458;SDS011;17254;50.976;7.034;2022-11-04T00:01:40;5.13;;;3.60;;
30458;SDS011;17254;50.976;7.034;2022-11-04T00:01:47;5.26;;;3.60;;
30458;SDS011;17254;50.976;7.034;2022-11-04T00:01:53;5.54;;;3.62;;
30458;SDS011;17254;50.976;7.034;2022-11-04T00:02:00;5.70;;;3.67;;
30458;SDS011;17254;50.976;7.034;2022-11-04T00:02:07;5.72;;;3.60;;
30458;SDS011;17254;50.976;7.034;2022-11-04T00:02:12;4.80;;;3.58;;
30458;SDS011;17254;50.976;7.034;2022-11-04T00:02:18;4.60;;;3.57;;
30458;SDS011;17254;50.976;7.034;2022-11-04T00:02:25;4.47;;;3.45;;
30458;SDS011;17254;50.976;7.034;2022-11-04T00:02:31;4.57;;;3.47;;
30458;SDS011;17254;50.976;7.034;2022-11-04T00:02:37;4.65;;;3.50;;
30458;SDS011;17254;50.976;7.034;2022-11-04T00:02:43;4.57;;;3.42;;
30458;SDS011;17254;50.976;7.034;2022-11-04T00:02:49;4.67;;;3.50;;
30458;SDS011;17254;50.976;7.034;2022-11-04T00:02:54;4.75;;;3.55;;
30458;SDS011;17254;50.976;7.034;2022-11-04T00:03:01;4.62;;;3.52;;
30458;SDS011;17254;50.976;7.034;2022-11-04T00:03:07;4.75;;;3.55;;
30458;SDS011;17254;50.976;7.034;2022-11-04T00:03:13;4.90;;;3.63;;
30458;SDS011;17254;50.976;7.034;2022-11-04T00:03:19;5.10;;;3.83;;
30458;SDS011;17254;50.976;7.034;2022-11-04T00:03:25;5.25;;;3.88;;
30458;SDS011;17254;50.976;7.034;2022-11-04T00:03:30;5.80;;;4.00;;
30458;SDS011;17254;50.976;7.034;2022-11-04T00:03:36;5.30;;;3.80;;
30458;SDS011;17254;50.976;7.034;2022-11-04T00:03:42;5.28;;;3.75;;
30458;SDS011;17254;50.976;7.034;2022-11-04T00:03:48;5.07;;;3.60;;
30458;SDS011;17254;50.976;7.034;2022-11-04T00:03:55;4.37;;;3.37;;
30458;SDS011;17254;50.976;7.034;2022-11-04T00:04:02;4.45;;;3.38;;
30458;SDS011;17254;50.976;7.034;2022-11-04T00:04:08;4.65;;;3.47;;
30458;SDS011;17254;50.976;7.034;2022-11-04T00:04:16;4.42;;;3.37;;
30458;SDS011;17254;50.976;7.034;2022-11-04T00:04:24;4.44;;;3.30;;
30458;SDS011;17254;50.976;7.034;2022-11-04T00:04:31;4.27;;;3.33;;
30458;SDS011;17254;50.976;7.034;2022-11-04T00:04:37;4.53;;;3.37;;
30458;SDS011;17254;50.976;7.034;2022-11-04T00:04:42;4.40;;;3.30;;
30458;SDS011;17254;50.976;7.034;2022-11-04T00:04:48;4.40;;;3.15;;
30458;SDS011;17254;50.976;7.034;2022-11-04T00:04:54;4.60;;;3.10;;
30458;SDS011;17254;50.976;7.034;2022-11-04T00:05:00;4.60;;;3.17;;
30458;SDS011;17254;50.976;7.034;2022-11-04T00:05:06;4.07;;;3.00;;
30458;SDS011;17254;50.976;7.034;2022-11-04T00:05:13;4.20;;;3.00;;
30458;SDS011;17254;50.976;7.034;2022-11-04T00:05:18;4.60;;;3.27;;
30458;SDS011;17254;50.976;7.034;2022-11-04T00:05:24;4.85;;;3.30;;
30458;SDS011;17254;50.976;7.034;2022-11-04T00:05:32;4.92;;;3.26;;
30458;SDS011;17254;50.976;7.034;2022-11-04T00:05:38;5.07;;;3.40;;
30458;SDS011;17254;50.976;7.034;2022-11-04T00:05:43;5.07;;;3.40;;
30458;SDS011;17254;50.976;7.034;2022-11-04T00:05:49;4.60;;;3.30;;
30458;SDS011;17254;50.976;7.034;2022-11-04T00:05:57;4.22;;;3.25;;
30458;SDS011;17254;50.976;7.034;2022-11-04T00:06:05;4.54;;;3.30;;
30458;SDS011;17254;50.976;7.034;2022-11-04T00:06:11;4.78;;;3.32;;
30458;SDS011;17254;50.976;7.034;2022-11-04T00:06:17;4.70;;;3.30;;
30458;SDS011;17254;50.976;7.034;2022-11-04T00:06:23;4.63;;;3.35;;
30458;SDS011;17254;50.976;7.034;2022-11-04T00:06:29;4.78;;;3.42;;
30458;SDS011;17254;50.976;7.034;2022-11-04T00:06:35;3.93;;;3.30;;
30458;SDS011;17254;50.976;7.034;2022-11-04T00:06:41;4.18;;;3.28;;
30458;SDS011;17254;50.976;7.034;2022-11-04T00:06:49;4.70;;;3.40;;
30458;SDS011;17254;50.976;7.034;2022-11-04T00:06:56;4.80;;;3.34;;
30458;SDS011;17254;50.976;7.034;2022-11-04T00:07:02;4.90;;;3.22;;
30458;SDS011;17254;50.976;7.034;2022-11-04T00:07:29;5.20;;;3.31;;
30458;SDS011;17254;50.976;7.034;2022-11-04T00:07:59;5.40;;;3.33;;
30458;SDS011;17254;50.976;7.034;2022-11-04T00:08:23;4.18;;;3.14;;
30458;SDS011;17254;50.976;7.034;2022-11-04T00:08:29;4.28;;;3.28;;
30458;SDS011;17254;50.976;7.034;2022-11-04T00:08:35;4.18;;;3.20;;
30458;SDS011;17254;50.976;7.034;2022-11-04T00:08:41;4.27;;;3.37;;
30458;SDS011;17254;50.976;7.034;2022-11-04T00:08:47;4.13;;;3.30;;
30458;SDS011;17254;50.976;7.034;2022-11-04T00:08:55;4.07;;;3.67;;
30458;SDS011;17254;50.976;7.034;2022-11-04T00:09:03;4.13;;;3.59;;
30458;SDS011;17254;50.976;7.034;2022-11-04T00:09:11;4.33;;;3.50;;
30458;SDS011;17254;50.976;7.034;2022-11-04T00:09:19;4.60;;;3.62;;
30458;SDS011;17254;50.976;7.034;2022-11-04T00:09:27;4.70;;;3.20;;
30458;SDS011;17254;50.976;7.034;2022-11-04T00:09:34;4.82;;;3.28;;
30458;SDS011;17254;50.976;7.034;2022-11-04T00:09:40;4.72;;;3.33;;
30458;SDS011;17254;50.976;7.034;2022-11-04T00:09:46;4.65;;;3.20;;
30458;SDS011;17254;50.976;7.034;2022-11-04T00:09:52;4.70;;;3.22;;
30458;SDS011;17254;50.976;7.034;2022-11-04T00:09:58;4.70;;;3.20;;
30458;SDS011;17254;50.976;7.034;2022-11-04T00:10:04;4.93;;;3.25;;
30458;SDS011;17254;50.976;7.034;2022-11-04T00:10:10;5.02;;;3.36;;
30458;SDS011;17254;50.976;7.034;2022-11-04T00:10:17;4.90;;;3.40;;
30458;SDS011;17254;50.976;7.034;2022-11-04T00:10:43;4.40;;;3.26;;
30458;SDS011;17254;50.976;7.034;2022-11-04T00:11:08;3.79;;;2.76;;
30458;SDS011;17254;50.976;7.034;2022-11-04T00:11:33;3.92;;;2.91;;
30458;SDS011;17254;50.976;7.034;2022-11-04T00:12:03;4.13;;;3.16;;
30458;SDS011;17254;50.976;7.034;2022-11-04T00:12:27;4.74;;;3.05;;
30458;SDS011;17254;50.976;7.034;2022-11-04T00:12:33;4.68;;;3.05;;
30458;SDS011;17254;50.976;7.034;2022-11-04T00:12:39;4.57;;;3.13;;
30458;SDS011;17254;50.976;7.034;2022-11-04T00:12:45;4.53;;;3.20;;
30458;SDS011;17254;50.976;7.034;2022-11-04T00:12:51;4.22;;;3.25;;
30458;SDS011;17254;50.976;7.034;2022-11-04T00:12:57;4.20;;;3.30;;
30458;SDS011;17254;50.976;7.034;2022-11-04T00:13:03;3.85;;;3.20;;
30458;SDS011;17254;50.976;7.034;2022-11-04T00:13:09;3.83;;;3.10;;
30458;SDS011;17254;50.976;7.034;2022-11-04T00:13:15;4.03;;;3.15;;
30458;SDS011;17254;50.976;7.034;2022-11-04T00:13:21;3.97;;;3.05;;
30458;SDS011;17254;50.976;7.034;2022-11-04T00:13:27;4.13;;;2.90;;
30458;SDS011;17254;50.976;7.034;2022-11-04T00:13:33;4.13;;;2.90;;
30458;SDS011;17254;50.976;7.034;2022-11-04T00:13:39;4.10;;;2.80;;
30458;SDS011;17254;50.976;7.034;2022-11-04T00:13:46;4.10;;;2.60;;
30458;SDS011;17254;50.976;7.034;2022-11-04T00:13:52;4.40;;;2.70;;
30458;SDS011;17254;50.976;7.034;2022-11-04T00:13:58;4.45;;;2.70;;
30458;SDS011;17254;50.976;7.034;2022-11-04T00:14:05;4.72;;;2.70;;
30458;SDS011;17254;50.976;7.034;2022-11-04T00:14:12;4.82;;;2.74;;
30458;SDS011;17254;50.976;7.034;2022-11-04T00:14:19;5.36;;;2.92;;
30458;SDS011;17254;50.976;7.034;2022-11-04T00:14:27;5.83;;;3.07;;
30458;SDS011;17254;50.976;7.034;2022-11-04T00:14:34;5.63;;;3.15;;
30458;SDS011;17254;50.976;7.034;2022-11-04T00:14:41;5.72;;;3.17;;
30458;SDS011;17254;50.976;7.034;2022-11-04T00:14:47;5.07;;;3.10;;
30458;SDS011;17254;50.976;7.034;2022-11-04T00:14:52;4.78;;;3.03;;
30458;SDS011;17254;50.976;7.034;2022-11-04T00:15:18;3.81;;;2.79;;
30458;SDS011;17254;50.976;7.034;2022-11-04T00:15:39;4.03;;;2.94;;
30458;SDS011;17254;50.976;7.034;2022-11-04T00:16:04;4.59;;;3.33;;
30458;SDS011;17254;50.976;7.034;2022-11-04T00:16:29;4.04;;;2.99;;
30458;SDS011;17254;50.976;7.034;2022-11-04T00:16:53;3.97;;;2.75;;
30458;SDS011;17254;50.976;7.034;2022-11-04T00:17:18;3.92;;;2.84;;
30458;SDS011;17254;50.976;7.034;2022-11-04T00:17:24;3.50;;;2.57;;
30458;SDS011;17254;50.976;7.034;2022-11-04T00:17:30;3.57;;;2.67;;
30458;SDS011;17254;50.976;7.034;2022-11-04T00:17:36;3.85;;;2.88;;
30458;SDS011;17254;50.976;7.034;2022-11-04T00:17:42;4.47;;;3.00;;
30458;SDS011;17254;50.976;7.034;2022-11-04T00:17:48;4.53;;;3.00;;
30458;SDS011;17254;50.976;7.034;2022-11-04T00:17:54;5.22;;;3.10;;
30458;SDS011;17254;50.976;7.034;2022-11-04T00:18:00;5.67;;;3.00;;
30458;SDS011;17254;50.976;7.034;2022-11-04T00:18:06;6.05;;;3.08;;
30458;SDS011;17254;50.976;7.034;2022-11-04T00:18:12;5.65;;;3.10;;
30458;SDS011;17254;50.976;7.034;2022-11-04T00:18:19;5.60;;;3.06;;
30458;SDS011;17254;50.976;7.034;2022-11-04T00:18:25;4.95;;;3.17;;
30458;SDS011;17254;50.976;7.034;2022-11-04T00:18:31;4.68;;;3.25;;
30458;SDS011;17254;50.976;7.034;2022-11-04T00:18:39;3.80;;;2.90;;
30458;SDS011;17254;50.976;7.034;2022-11-04T00:18:45;3.83;;;2.90;;
30458;SDS011;17254;50.976;7.034;2022-11-04T00:18:51;4.28;;;2.97;;
30458;SDS011;17254;50.976;7.034;2022-11-04T00:18:58;4.32;;;2.78;;
30458;SDS011;17254;50.976;7.034;2022-11-04T00:19:04;4.40;;;2.80;;
30458;SDS011;17254;50.976;7.034;2022-11-04T00:19:10;4.40;;;2.90;;
30458;SDS011;17254;50.976;7.034;2022-11-04T00:19:16;4.60;;;2.90;;
30458;SDS011;17254;50.976;7.034;2022-11-04T00:19:22;4.15;;;2.92;;
30458;SDS011;17254;50.976;7.034;2022-11-04T00:19:28;4.03;;;3.00;;
30458;SDS011;17254;50.976;7.034;2022-11-04T00:19:57;4.09;;;2.90;;
30458;SDS011;17254;50.976;7.034;2022-11-04T00:20:21;4.72;;;2.80;;
30458;SDS011;17254;50.976;7.034;2022-11-04T00:20:46;4.50;;;2.69;;
30458;SDS011;17254;50.976;7.034;2022-11-04T00:21:19;3.59;;;2.71;;
30458;SDS011;17254;50.976;7.034;2022-11-04T00:21:44;4.07;;;2.63;;
30458;SDS011;17254;50.976;7.034;2022-11-04T00:22:10;3.97;;;2.80;;
30458;SDS011;17254;50.976;7.034;2022-11-04T00:22:34;3.92;;;2.76;;
30458;SDS011;17254;50.976;7.034;2022-11-04T00:22:59;3.46;;;2.69;;
30458;SDS011;17254;50.976;7.034;2022-11-04T00:23:23;4.69;;;2.71;;
30458;SDS011;17254;50.976;7.034;2022-11-04T00:23:48;4.34;;;2.74;;
30458;SDS011;17254;50.976;7.034;2022-11-04T00:24:12;3.75;;;2.59;;
30458;SDS011;17254;50.976;7.034;2022-11-04T00:24:49;3.89;;;2.70;;
30458;SDS011;17254;50.976;7.034;2022-11-04T00:25:13;4.11;;;2.46;;
30458;SDS011;17254;50.976;7.034;2022-11-04T00:25:38;4.06;;;2.66;;
30458;SDS011;17254;50.976;7.034;2022-11-04T00:26:02;4.11;;;2.56;;
30458;SDS011;17254;50.976;7.034;2022-11-04T00:26:27;3.58;;;2.55;;
30458;SDS011;17254;50.976;7.034;2022-11-04T00:26:51;3.70;;;2.79;;
30458;SDS011;17254;50.976;7.034;2022-11-04T00:27:17;3.66;;;2.61;;
30458;SDS011;17254;50.976;7.034;2022-11-04T00:27:42;3.83;;;2.61;;
30458;SDS011;17254;50.976;7.034;2022-11-04T00:28:08;3.75;;;2.72;;
30458;SDS011;17254;50.976;7.034;2022-11-04T00:28:34;3.79;;;2.63;;
30458;SDS011;17254;50.976;7.034;2022-11-04T00:28:50;4.10;;;2.67;;
30458;SDS011;17254;50.976;7.034;2022-11-04T00:28:58;4.35;;;2.85;;
30458;SDS011;17254;50.976;7.034;2022-11-04T00:29:04;4.20;;;2.70;;
30458;SDS011;17254;50.976;7.034;2022-11-04T00:29:10;4.33;;;2.63;;
30458;SDS011;17254;50.976;7.034;2022-11-04T00:29:16;4.40;;;2.60;;
30458;SDS011;17254;50.976;7.034;2022-11-04T00:29:22;4.35;;;2.70;;
30458;SDS011;17254;50.976;7.034;2022-11-04T00:29:28;4.22;;;2.60;;
30458;SDS011;17254;50.976;7.034;2022-11-04T00:29:34;4.38;;;2.65;;
30458;SDS011;17254;50.976;7.034;2022-11-04T00:29:39;4.57;;;2.67;;
30458;SDS011;17254;50.976;7.034;2022-11-04T00:29:45;4.13;;;2.50;;
30458;SDS011;17254;50.976;7.034;2022-11-04T00:29:51;4.13;;;2.40;;
30458;SDS011;17254;50.976;7.034;2022-11-04T00:29:57;4.00;;;2.42;;
30458;SDS011;17254;50.976;7.034;2022-11-04T00:30:04;4.22;;;2.60;;
30458;SDS011;17254;50.976;7.034;2022-11-04T00:30:13;4.32;;;2.59;;
30458;SDS011;17254;50.976;7.034;2022-11-04T00:30:19;4.28;;;2.45;;
30458;SDS011;17254;50.976;7.034;2022-11-04T00:30:25;3.90;;;2.33;;
30458;SDS011;17254;50.976;7.034;2022-11-04T00:30:31;3.75;;;2.30;;
30458;SDS011;17254;50.976;7.034;2022-11-04T00:30:37;3.40;;;2.40;;
30458;SDS011;17254;50.976;7.034;2022-11-04T00:30:43;3.70;;;2.30;;
30458;SDS011;17254;50.976;7.034;2022-11-04T00:30:51;4.00;;;2.38;;
30458;SDS011;17254;50.976;7.034;2022-11-04T00:31:00;4.32;;;2.41;;
30458;SDS011;17254;50.976;7.034;2022-11-04T00:31:27;4.96;;;2.44;;
30458;SDS011;17254;50.976;7.034;2022-11-04T00:31:51;4.65;;;2.47;;
30458;SDS011;17254;50.976;7.034;2022-11-04T00:32:17;4.30;;;2.40;;
30458;SDS011;17254;50.976;7.034;2022-11-04T00:32:42;4.21;;;2.50;;
30458;SDS011;17254;50.976;7.034;2022-11-04T00:33:18;3.42;;;2.58;;
30458;SDS011;17254;50.976;7.034;2022-11-04T00:33:30;3.63;;;2.47;;
30458;SDS011;17254;50.976;7.034;2022-11-04T00:33:36;3.75;;;2.60;;
30458;SDS011;17254;50.976;7.034;2022-11-04T00:33:42;3.97;;;2.50;;
30458;SDS011;17254;50.976;7.034;2022-11-04T00:33:49;4.37;;;2.50;;
30458;SDS011;17254;50.976;7.034;2022-11-04T00:33:57;4.60;;;2.57;;
30458;SDS011;17254;50.976;7.034;2022-11-04T00:34:03;4.80;;;2.60;;
30458;SDS011;17254;50.976;7.034;2022-11-04T00:34:09;5.30;;;2.63;;
30458;SDS011;17254;50.976;7.034;2022-11-04T00:34:15;4.85;;;2.58;;
30458;SDS011;17254;50.976;7.034;2022-11-04T00:34:21;5.10;;;2.60;;
30458;SDS011;17254;50.976;7.034;2022-11-04T00:34:27;4.80;;;2.80;;
30458;SDS011;17254;50.976;7.034;2022-11-04T00:34:33;4.63;;;2.78;;
30458;SDS011;17254;50.976;7.034;2022-11-04T00:34:38;4.47;;;2.75;;
30458;SDS011;17254;50.976;7.034;2022-11-04T00:34:44;4.35;;;2.83;;
30458;SDS011;17254;50.976;7.034;2022-11-04T00:34:50;4.07;;;2.78;;
30458;SDS011;17254;50.976;7.034;2022-11-04T00:34:56;3.97;;;2.60;;
30458;SDS011;17254;50.976;7.034;2022-11-04T00:35:02;4.03;;;2.70;;
30458;SDS011;17254;50.976;7.034;2022-11-04T00:35:09;3.80;;;2.90;;
30458;SDS011;17254;50.976;7.034;2022-11-04T00:35:16;3.90;;;2.90;;
30458;SDS011;17254;50.976;7.034;2022-11-04T00:35:24;3.80;;;3.10;;
30458;SDS011;17254;50.976;7.034;2022-11-04T00:35:29;3.90;;;3.10;;
30458;SDS011;17254;50.976;7.034;2022-11-04T00:35:35;3.67;;;2.77;;
30458;SDS011;17254;50.976;7.034;2022-11-04T00:35:46;3.65;;;2.60;;
30458;SDS011;17254;50.976;7.034;2022-11-04T00:35:54;4.30;;;2.50;;
30458;SDS011;17254;50.976;7.034;2022-11-04T00:36:01;4.13;;;2.32;;
30458;SDS011;17254;50.976;7.034;2022-11-04T00:36:07;4.25;;;2.35;;
30458;SDS011;17254;50.976;7.034;2022-11-04T00:36:13;4.28;;;2.40;;
30458;SDS011;17254;50.976;7.034;2022-11-04T00:36:19;3.78;;;2.60;;
30458;SDS011;17254;50.976;7.034;2022-11-04T00:36:27;3.80;;;2.72;;
30458;SDS011;17254;50.976;7.034;2022-11-04T00:36:34;3.86;;;2.80;;
30458;SDS011;17254;50.976;7.034;2022-11-04T00:36:40;3.83;;;2.90;;
30458;SDS011;17254;50.976;7.034;2022-11-04T00:36:46;3.95;;;2.95;;
30458;SDS011;17254;50.976;7.034;2022-11-04T00:36:52;3.83;;;2.70;;
30458;SDS011;17254;50.976;7.034;2022-11-04T00:36:58;4.10;;;2.50;;
30458;SDS011;17254;50.976;7.034;2022-11-04T00:37:04;4.05;;;2.45;;
30458;SDS011;17254;50.976;7.034;2022-11-04T00:37:12;4.08;;;2.22;;
30458;SDS011;17254;50.976;7.034;2022-11-04T00:37:18;3.92;;;2.18;;
30458;SDS011;17254;50.976;7.034;2022-11-04T00:37:24;3.72;;;2.15;;
30458;SDS011;17254;50.976;7.034;2022-11-04T00:37:30;3.83;;;2.30;;
30458;SDS011;17254;50.976;7.034;2022-11-04T00:37:36;4.20;;;2.40;;
30458;SDS011;17254;50.976;7.034;2022-11-04T00:37:43;3.80;;;2.33;;
30458;SDS011;17254;50.976;7.034;2022-11-04T00:37:49;4.17;;;2.30;;
30458;SDS011;17254;50.976;7.034;2022-11-04T00:37:55;4.30;;;2.38;;
30458;SDS011;17254;50.976;7.034;2022-11-04T00:38:01;4.07;;;2.20;;
30458;SDS011;17254;50.976;7.034;2022-11-04T00:38:08;3.90;;;2.30;;
30458;SDS011;17254;50.976;7.034;2022-11-04T00:38:14;3.80;;;2.30;;
30458;SDS011;17254;50.976;7.034;2022-11-04T00:38:20;3.70;;;2.30;;
30458;SDS011;17254;50.976;7.034;2022-11-04T00:38:26;3.70;;;2.40;;
30458;SDS011;17254;50.976;7.034;2022-11-04T00:38:32;3.78;;;2.50;;
30458;SDS011;17254;50.976;7.034;2022-11-04T00:38:38;3.90;;;2.47;;
30458;SDS011;17254;50.976;7.034;2022-11-04T00:38:44;4.05;;;2.50;;
30458;SDS011;17254;50.976;7.034;2022-11-04T00:38:51;4.05;;;2.40;;
30458;SDS011;17254;50.976;7.034;2022-11-04T00:38:57;3.80;;;2.20;;
30458;SDS011;17254;50.976;7.034;2022-11-04T00:39:03;3.63;;;2.13;;
30458;SDS011;17254;50.976;7.034;2022-11-04T00:39:09;3.67;;;2.25;;
30458;SDS011;17254;50.976;7.034;2022-11-04T00:39:15;3.83;;;2.30;;
30458;SDS011;17254;50.976;7.034;2022-11-04T00:39:22;3.66;;;2.38;;
30458;SDS011;17254;50.976;7.034;2022-11-04T00:39:28;3.67;;;2.42;;
30458;SDS011;17254;50.976;7.034;2022-11-04T00:39:34;3.75;;;2.42;;
30458;SDS011;17254;50.976;7.034;2022-11-04T00:39:40;3.50;;;2.30;;
30458;SDS011;17254;50.976;7.034;2022-11-04T00:39:46;3.30;;;2.30;;
30458;SDS011;17254;50.976;7.034;2022-11-04T00:39:51;3.38;;;2.33;;
30458;SDS011;17254;50.976;7.034;2022-11-04T00:39:57;3.30;;;2.30;;
30458;SDS011;17254;50.976;7.034;2022-11-04T00:40:04;3.20;;;2.38;;
30458;SDS011;17254;50.976;7.034;2022-11-04T00:40:13;3.50;;;2.50;;
30458;SDS011;17254;50.976;7.034;2022-11-04T00:40:20;3.65;;;2.60;;
30458;SDS011;17254;50.976;7.034;2022-11-04T00:40:26;4.10;;;2.70;;
30458;SDS011;17254;50.976;7.034;2022-11-04T00:40:31;4.47;;;2.72;;
30458;SDS011;17254;50.976;7.034;2022-11-04T00:40:37;4.35;;;2.60;;
30458;SDS011;17254;50.976;7.034;2022-11-04T00:40:43;4.30;;;2.65;;
30458;SDS011;17254;50.976;7.034;2022-11-04T00:40:49;4.20;;;2.50;;
30458;SDS011;17254;50.976;7.034;2022-11-04T00:40:57;4.50;;;2.36;;
30458;SDS011;17254;50.976;7.034;2022-11-04T00:41:02;4.15;;;2.33;;
30458;SDS011;17254;50.976;7.034;2022-11-04T00:41:29;3.92;;;2.41;;
30458;SDS011;17254;50.976;7.034;2022-11-04T00:41:35;3.58;;;2.50;;
30458;SDS011;17254;50.976;7.034;2022-11-04T00:41:41;3.47;;;2.40;;
30458;SDS011;17254;50.976;7.034;2022-11-04T00:41:47;3.77;;;2.60;;
30458;SDS011;17254;50.976;7.034;2022-11-04T00:41:52;4.03;;;2.63;;
30458;SDS011;17254;50.976;7.034;2022-11-04T00:41:58;4.50;;;2.78;;
30458;SDS011;17254;50.976;7.034;2022-11-04T00:42:04;4.60;;;2.83;;
30458;SDS011;17254;50.976;7.034;2022-11-04T00:42:10;4.90;;;3.03;;
30458;SDS011;17254;50.976;7.034;2022-11-04T00:42:16;4.90;;;3.05;;
30458;SDS011;17254;50.976;7.034;2022-11-04T00:42:22;4.65;;;2.97;;
30458;SDS011;17254;50.976;7.034;2022-11-04T00:42:28;4.60;;;2.80;;
30458;SDS011;17254;50.976;7.034;2022-11-04T00:42:34;4.60;;;2.77;;
30458;SDS011;17254;50.976;7.034;2022-11-04T00:42:42;4.47;;;2.72;;
30458;SDS011;17254;50.976;7.034;2022-11-04T00:42:49;4.20;;;2.57;;
30458;SDS011;17254;50.976;7.034;2022-11-04T00:42:55;4.25;;;2.65;;
30458;SDS011;17254;50.976;7.034;2022-11-04T00:43:01;4.07;;;2.67;;
30458;SDS011;17254;50.976;7.034;2022-11-04T00:43:07;3.90;;;2.63;;
30458;SDS011;17254;50.976;7.034;2022-11-04T00:43:12;3.97;;;2.63;;
30458;SDS011;17254;50.976;7.034;2022-11-04T00:43:18;3.97;;;2.80;;
30458;SDS011;17254;50.976;7.034;2022-11-04T00:43:24;3.90;;;2.80;;
30458;SDS011;17254;50.976;7.034;2022-11-04T00:43:30;3.75;;;2.80;;
30458;SDS011;17254;50.976;7.034;2022-11-04T00:43:36;3.83;;;2.92;;
30458;SDS011;17254;50.976;7.034;2022-11-04T00:43:42;3.72;;;2.90;;
30458;SDS011;17254;50.976;7.034;2022-11-04T00:43:48;3.73;;;2.73;;
30458;SDS011;17254;50.976;7.034;2022-11-04T00:43:54;4.10;;;2.92;;
30458;SDS011;17254;50.976;7.034;2022-11-04T00:44:03;4.01;;;2.96;;
30458;SDS011;17254;50.976;7.034;2022-11-04T00:44:09;3.80;;;2.70;;
30458;SDS011;17254;50.976;7.034;2022-11-04T00:44:15;3.67;;;2.72;;
30458;SDS011;17254;50.976;7.034;2022-11-04T00:44:21;3.37;;;2.67;;
30458;SDS011;17254;50.976;7.034;2022-11-04T00:44:27;3.33;;;2.53;;
30458;SDS011;17254;50.976;7.034;2022-11-04T00:44:33;3.53;;;2.58;;
30458;SDS011;17254;50.976;7.034;2022-11-04T00:44:39;3.83;;;2.60;;
30458;SDS011;17254;50.976;7.034;2022-11-04T00:44:45;3.90;;;2.70;;
30458;SDS011;17254;50.976;7.034;2022-11-04T00:44:51;4.03;;;2.70;;
30458;SDS011;17254;50.976;7.034;2022-11-04T00:44:57;4.13;;;2.70;;
30458;SDS011;17254;50.976;7.034;2022-11-04T00:45:04;4.40;;;2.80;;
30458;SDS011;17254;50.976;7.034;2022-11-04T00:45:10;4.12;;;2.80;;
30458;SDS011;17254;50.976;7.034;2022-11-04T00:45:16;4.20;;;2.83;;
30458;SDS011;17254;50.976;7.034;2022-11-04T00:45:23;4.26;;;2.80;;
30458;SDS011;17254;50.976;7.034;2022-11-04T00:45:29;4.22;;;2.92;;
30458;SDS011;17254;50.976;7.034;2022-11-04T00:45:35;4.10;;;2.97;;
30458;SDS011;17254;50.976;7.034;2022-11-04T00:45:41;4.72;;;3.00;;
30458;SDS011;17254;50.976;7.034;2022-11-04T00:45:47;4.65;;;2.80;;
30458;SDS011;17254;50.976;7.034;2022-11-04T00:45:53;4.82;;;2.80;;
30458;SDS011;17254;50.976;7.034;2022-11-04T00:45:59;4.57;;;2.75;;
30458;SDS011;17254;50.976;7.034;2022-11-04T00:46:05;4.60;;;2.80;;
30458;SDS011;17254;50.976;7.034;2022-11-04T00:46:11;4.17;;;2.80;;
30458;SDS011;17254;50.976;7.034;2022-11-04T00:46:17;4.10;;;2.85;;
30458;SDS011;17254;50.976;7.034;2022-11-04T00:46:23;4.03;;;2.90;;
30458;SDS011;17254;50.976;7.034;2022-11-04T00:46:30;4.40;;;2.76;;
30458;SDS011;17254;50.976;7.034;2022-11-04T00:46:37;5.18;;;2.70;;
30458;SDS011;17254;50.976;7.034;2022-11-04T00:46:44;5.20;;;2.63;;
30458;SDS011;17254;50.976;7.034;2022-11-04T00:46:49;5.82;;;2.70;;
30458;SDS011;17254;50.976;7.034;2022-11-04T00:46:55;5.47;;;2.73;;
30458;SDS011;17254;50.976;7.034;2022-11-04T00:47:01;4.97;;;2.70;;
30458;SDS011;17254;50.976;7.034;2022-11-04T00:47:07;4.20;;;2.70;;
30458;SDS011;17254;50.976;7.034;2022-11-04T00:47:13;4.28;;;2.78;;
30458;SDS011;17254;50.976;7.034;2022-11-04T00:47:19;3.72;;;2.80;;
30458;SDS011;17254;50.976;7.034;2022-11-04T00:47:25;3.85;;;2.90;;
30458;SDS011;17254;50.976;7.034;2022-11-04T00:47:31;4.03;;;2.90;;
30458;SDS011;17254;50.976;7.034;2022-11-04T00:47:37;4.22;;;2.84;;
30458;SDS011;17254;50.976;7.034;2022-11-04T00:47:43;4.10;;;2.73;;
30458;SDS011;17254;50.976;7.034;2022-11-04T00:47:49;4.18;;;2.70;;
30458;SDS011;17254;50.976;7.034;2022-11-04T00:47:55;4.57;;;2.73;;
30458;SDS011;17254;50.976;7.034;2022-11-04T00:48:02;4.57;;;2.87;;
30458;SDS011;17254;50.976;7.034;2022-11-04T00:48:08;4.85;;;3.10;;
30458;SDS011;17254;50.976;7.034;2022-11-04T00:48:14;4.90;;;3.20;;
30458;SDS011;17254;50.976;7.034;2022-11-04T00:48:20;4.63;;;3.03;;
30458;SDS011;17254;50.976;7.034;2022-11-04T00:48:26;4.38;;;2.90;;
30458;SDS011;17254;50.976;7.034;2022-11-04T00:48:32;4.65;;;2.95;;
30458;SDS011;17254;50.976;7.034;2022-11-04T00:48:38;4.43;;;2.80;;
30458;SDS011;17254;50.976;7.034;2022-11-04T00:48:44;4.47;;;2.90;;
30458;SDS011;17254;50.976;7.034;2022-11-04T00:48:50;5.07;;;3.03;;
30458;SDS011;17254;50.976;7.034;2022-11-04T00:48:56;5.07;;;3.10;;
30458;SDS011;17254;50.976;7.034;2022-11-04T00:49:03;4.75;;;3.00;;
30458;SDS011;17254;50.976;7.034;2022-11-04T00:49:09;5.04;;;3.12;;
30458;SDS011;17254;50.976;7.034;2022-11-04T00:49:15;5.18;;;3.25;;
30458;SDS011;17254;50.976;7.034;2022-11-04T00:49:21;5.07;;;3.20;;
30458;SDS011;17254;50.976;7.034;2022-11-04T00:49:27;5.50;;;3.10;;
30458;SDS011;17254;50.976;7.034;2022-11-04T00:49:33;5.87;;;3.23;;
30458;SDS011;17254;50.976;7.034;2022-11-04T00:49:39;5.47;;;3.10;;
30458;SDS011;17254;50.976;7.034;2022-11-04T00:49:45;5.32;;;3.00;;
30458;SDS011;17254;50.976;7.034;2022-11-04T00:49:51;4.80;;;3.03;;
30458;SDS011;17254;50.976;7.034;2022-11-04T00:49:57;4.53;;;3.20;;
30458;SDS011;17254;50.976;7.034;2022-11-04T00:50:03;3.97;;;3.03;;
30458;SDS011;17254;50.976;7.034;2022-11-04T00:50:10;4.23;;;3.03;;
30458;SDS011;17254;50.976;7.034;2022-11-04T00:50:16;4.50;;;3.20;;
30458;SDS011;17254;50.976;7.034;2022-11-04T00:50:22;4.70;;;3.05;;
30458;SDS011;17254;50.976;7.034;2022-11-04T00:50:28;4.93;;;3.28;;
30458;SDS011;17254;50.976;7.034;2022-11-04T00:50:34;5.22;;;3.45;;
30458;SDS011;17254;50.976;7.034;2022-11-04T00:50:40;5.30;;;3.45;;
30458;SDS011;17254;50.976;7.034;2022-11-04T00:50:47;5.86;;;3.38;;
30458;SDS011;17254;50.976;7.034;2022-11-04T00:50:53;5.90;;;3.45;;
30458;SDS011;17254;50.976;7.034;2022-11-04T00:50:59;5.45;;;3.25;;
30458;SDS011;17254;50.976;7.034;2022-11-04T00:51:05;5.22;;;3.05;;
30458;SDS011;17254;50.976;7.034;2022-11-04T00:51:11;5.10;;;3.10;;
30458;SDS011;17254;50.976;7.034;2022-11-04T00:51:17;4.23;;;3.00;;
30458;SDS011;17254;50.976;7.034;2022-11-04T00:51:24;5.00;;;2.90;;
30458;SDS011;17254;50.976;7.034;2022-11-04T00:51:30;5.03;;;2.90;;
30458;SDS011;17254;50.976;7.034;2022-11-04T00:51:36;5.60;;;3.00;;
30458;SDS011;17254;50.976;7.034;2022-11-04T00:51:41;5.65;;;2.88;;
30458;SDS011;17254;50.976;7.034;2022-11-04T00:51:47;6.05;;;2.88;;